PKIAS WABI-WAYY
Flight info
| Callsign | PKIAS |
|---|---|
| Flight time | 0h 49m |
| Altitude | 9000 |
| Route | TMK |
| Aircraft | DA62/L-V/N |
Departure
| Time | 2026-05-04 11:22 |
|---|---|
| Airport | Douw Aturure Airport (WABI) |
Arrival
| Time | 2026-05-04 12:12 |
|---|---|
| Airport | Mozes Kilangin Airport (WAYY) |
| Time | Latitude | Longitude | Altitude | Speed | Heading |
|---|---|---|---|---|---|
| 2026-05-04 11:08 | -3.36762 | 135.49791 | 37 ft | 0 kts | 227° |
| 2026-05-04 11:19 | -3.36756 | 135.49717 | 37 ft | 0 kts | 263° |
| 2026-05-04 11:19 | -3.36763 | 135.49698 | 37 ft | 8 kts | 246° |
| 2026-05-04 11:19 | -3.36772 | 135.49641 | 37 ft | 7 kts | 341° |
| 2026-05-04 11:20 | -3.36638 | 135.49599 | 34 ft | 47 kts | 341° |
| 2026-05-04 11:20 | -3.36169 | 135.49433 | 48 ft | 89 kts | 339° |
| 2026-05-04 11:20 | -3.35566 | 135.49130 | 177 ft | 105 kts | 329° |
| 2026-05-04 11:20 | -3.35162 | 135.48554 | 433 ft | 98 kts | 276° |
| 2026-05-04 11:22 | -3.37598 | 135.50930 | 1696 ft | 93 kts | 133° |
| 2026-05-04 11:22 | -3.38010 | 135.51448 | 1948 ft | 97 kts | 128° |
| 2026-05-04 11:23 | -3.38436 | 135.51988 | 2201 ft | 101 kts | 128° |
| 2026-05-04 11:23 | -3.38877 | 135.52549 | 2456 ft | 105 kts | 128° |
| 2026-05-04 11:24 | -3.38630 | 135.55472 | 3968 ft | 122 kts | 14° |
| 2026-05-04 11:25 | -3.38073 | 135.56058 | 4220 ft | 124 kts | 79° |
| 2026-05-04 11:25 | -3.38361 | 135.56828 | 4475 ft | 126 kts | 143° |
| 2026-05-04 11:25 | -3.39201 | 135.56996 | 4736 ft | 127 kts | 182° |
| 2026-05-04 11:26 | -3.40976 | 135.56937 | 5239 ft | 130 kts | 182° |
| 2026-05-04 11:27 | -3.47072 | 135.58237 | 6989 ft | 134 kts | 161° |
| 2026-05-04 11:28 | -3.47901 | 135.58679 | 7238 ft | 136 kts | 138° |
| 2026-05-04 11:28 | -3.48543 | 135.59377 | 7491 ft | 136 kts | 132° |
| 2026-05-04 11:28 | -3.49166 | 135.60097 | 7742 ft | 138 kts | 130° |
| 2026-05-04 11:28 | -3.49781 | 135.60839 | 7991 ft | 138 kts | 129° |
| 2026-05-04 11:29 | -3.50396 | 135.61584 | 8242 ft | 139 kts | 129° |
| 2026-05-04 11:29 | -3.50994 | 135.62322 | 8489 ft | 138 kts | 129° |
| 2026-05-04 11:29 | -3.51599 | 135.63070 | 8739 ft | 139 kts | 129° |
| 2026-05-04 11:29 | -3.52213 | 135.63826 | 8991 ft | 140 kts | 129° |
| 2026-05-04 11:31 | -3.57393 | 135.70215 | 9300 ft | 166 kts | 129° |
| 2026-05-04 11:33 | -3.62274 | 135.76242 | 10700 ft | 162 kts | 129° |
| 2026-05-04 11:33 | -3.62992 | 135.77126 | 10902 ft | 163 kts | 129° |
| 2026-05-04 11:33 | -3.63706 | 135.78009 | 11101 ft | 164 kts | 129° |
| 2026-05-04 11:34 | -3.64415 | 135.78883 | 11298 ft | 163 kts | 129° |
| 2026-05-04 11:34 | -3.65128 | 135.79763 | 11498 ft | 162 kts | 129° |
| 2026-05-04 11:34 | -3.65837 | 135.80640 | 11694 ft | 162 kts | 129° |
| 2026-05-04 11:34 | -3.66550 | 135.81515 | 11898 ft | 163 kts | 129° |
| 2026-05-04 11:35 | -3.67264 | 135.82396 | 12099 ft | 163 kts | 129° |
| 2026-05-04 11:35 | -3.67978 | 135.83278 | 12300 ft | 164 kts | 129° |
| 2026-05-04 11:35 | -3.68703 | 135.84172 | 12501 ft | 166 kts | 129° |
| 2026-05-04 11:35 | -3.69434 | 135.85078 | 12702 ft | 169 kts | 129° |
| 2026-05-04 11:36 | -3.70185 | 135.85996 | 12902 ft | 171 kts | 129° |
| 2026-05-04 11:36 | -3.70937 | 135.86923 | 13103 ft | 172 kts | 128° |
| 2026-05-04 11:36 | -3.71681 | 135.87847 | 13298 ft | 170 kts | 129° |
| 2026-05-04 11:36 | -3.72429 | 135.88772 | 13503 ft | 171 kts | 129° |
| 2026-05-04 11:37 | -3.73190 | 135.89711 | 13597 ft | 179 kts | 129° |
| 2026-05-04 11:37 | -3.73985 | 135.90693 | 13594 ft | 181 kts | 129° |
| 2026-05-04 11:37 | -3.74769 | 135.91662 | 13585 ft | 178 kts | 129° |
| 2026-05-04 11:37 | -3.75535 | 135.92604 | 13447 ft | 165 kts | 129° |
| 2026-05-04 11:38 | -3.76198 | 135.93424 | 13308 ft | 146 kts | 128° |
| 2026-05-04 11:38 | -3.76812 | 135.94185 | 13202 ft | 132 kts | 129° |
| 2026-05-04 11:38 | -3.77343 | 135.94837 | 13188 ft | 108 kts | 128° |
| 2026-05-04 11:38 | -3.77773 | 135.95384 | 13250 ft | 99 kts | 128° |
| 2026-05-04 11:39 | -3.78235 | 135.95941 | 13300 ft | 118 kts | 131° |
| 2026-05-04 11:39 | -3.78788 | 135.96617 | 13000 ft | 133 kts | 128° |
| 2026-05-04 11:40 | -3.82612 | 136.01343 | 13008 ft | 159 kts | 128° |
| 2026-05-04 11:41 | -3.83310 | 136.02204 | 13011 ft | 159 kts | 128° |
| 2026-05-04 11:41 | -3.84006 | 136.03063 | 13011 ft | 158 kts | 128° |
| 2026-05-04 11:41 | -3.84696 | 136.03916 | 13016 ft | 158 kts | 128° |
| 2026-05-04 11:41 | -3.85385 | 136.04766 | 13015 ft | 157 kts | 128° |
| 2026-05-04 11:42 | -3.86070 | 136.05612 | 13015 ft | 156 kts | 128° |
| 2026-05-04 11:42 | -3.86753 | 136.06454 | 13015 ft | 156 kts | 128° |
| 2026-05-04 11:42 | -3.87437 | 136.07300 | 13015 ft | 156 kts | 128° |
| 2026-05-04 11:42 | -3.88172 | 136.08073 | 13012 ft | 156 kts | 146° |
| 2026-05-04 11:43 | -3.89119 | 136.08609 | 13015 ft | 157 kts | 151° |
| 2026-05-04 11:43 | -3.90078 | 136.09131 | 13015 ft | 157 kts | 151° |
| 2026-05-04 11:43 | -3.91047 | 136.09658 | 13017 ft | 162 kts | 151° |
| 2026-05-04 11:43 | -3.92063 | 136.10209 | 13017 ft | 169 kts | 151° |
| 2026-05-04 11:44 | -3.93116 | 136.10782 | 13017 ft | 175 kts | 151° |
| 2026-05-04 11:44 | -3.94203 | 136.11372 | 13016 ft | 179 kts | 151° |
| 2026-05-04 11:44 | -3.95312 | 136.11974 | 13018 ft | 182 kts | 151° |
| 2026-05-04 11:44 | -3.96437 | 136.12585 | 13009 ft | 185 kts | 151° |
| 2026-05-04 11:45 | -3.97573 | 136.13203 | 13007 ft | 187 kts | 151° |
| 2026-05-04 11:45 | -3.98721 | 136.13827 | 13008 ft | 188 kts | 151° |
| 2026-05-04 11:45 | -3.99875 | 136.14455 | 13008 ft | 189 kts | 151° |
| 2026-05-04 11:45 | -4.01034 | 136.15085 | 13008 ft | 190 kts | 151° |
| 2026-05-04 11:46 | -4.02194 | 136.15715 | 13009 ft | 190 kts | 151° |
| 2026-05-04 11:46 | -4.03359 | 136.16348 | 13008 ft | 191 kts | 151° |
| 2026-05-04 11:46 | -4.04526 | 136.16982 | 13012 ft | 191 kts | 151° |
| 2026-05-04 11:46 | -4.05682 | 136.17610 | 13005 ft | 191 kts | 151° |
| 2026-05-04 11:47 | -4.06867 | 136.18254 | 13002 ft | 191 kts | 151° |
| 2026-05-04 11:47 | -4.08021 | 136.18880 | 12984 ft | 191 kts | 151° |
| 2026-05-04 11:47 | -4.09192 | 136.19515 | 12984 ft | 191 kts | 151° |
| 2026-05-04 11:47 | -4.10363 | 136.20151 | 12984 ft | 192 kts | 151° |
| 2026-05-04 11:48 | -4.11534 | 136.20786 | 12986 ft | 192 kts | 151° |
| 2026-05-04 11:48 | -4.12710 | 136.21423 | 12986 ft | 192 kts | 151° |
| 2026-05-04 11:48 | -4.13878 | 136.22061 | 12985 ft | 191 kts | 151° |
| 2026-05-04 11:48 | -4.15045 | 136.22705 | 12984 ft | 191 kts | 151° |
| 2026-05-04 11:49 | -4.16208 | 136.23349 | 12985 ft | 191 kts | 151° |
| 2026-05-04 11:49 | -4.17372 | 136.23993 | 12984 ft | 191 kts | 151° |
| 2026-05-04 11:49 | -4.18490 | 136.24706 | 12980 ft | 191 kts | 136° |
| 2026-05-04 11:49 | -4.19358 | 136.25709 | 12960 ft | 191 kts | 128° |
| 2026-05-04 11:50 | -4.20186 | 136.26752 | 12960 ft | 191 kts | 128° |
| 2026-05-04 11:50 | -4.20951 | 136.27834 | 12958 ft | 191 kts | 116° |
| 2026-05-04 11:50 | -4.21354 | 136.29093 | 12958 ft | 190 kts | 103° |
| 2026-05-04 11:50 | -4.21650 | 136.30385 | 12958 ft | 190 kts | 102° |
| 2026-05-04 11:51 | -4.21941 | 136.31678 | 12956 ft | 190 kts | 102° |
| 2026-05-04 11:51 | -4.22231 | 136.32971 | 12955 ft | 190 kts | 102° |
| 2026-05-04 11:51 | -4.22512 | 136.34269 | 12953 ft | 190 kts | 98° |
| 2026-05-04 11:51 | -4.22443 | 136.35584 | 12954 ft | 190 kts | 83° |
| 2026-05-04 11:52 | -4.22305 | 136.36900 | 12950 ft | 190 kts | 83° |
| 2026-05-04 11:52 | -4.22170 | 136.38198 | 12950 ft | 190 kts | 83° |
| 2026-05-04 11:52 | -4.22034 | 136.39513 | 12950 ft | 190 kts | 83° |
| 2026-05-04 11:52 | -4.21896 | 136.40833 | 12950 ft | 190 kts | 83° |
| 2026-05-04 11:53 | -4.21759 | 136.42150 | 12955 ft | 190 kts | 83° |
| 2026-05-04 11:53 | -4.21619 | 136.43497 | 12776 ft | 199 kts | 83° |
| 2026-05-04 11:53 | -4.21474 | 136.44900 | 12580 ft | 205 kts | 84° |
| 2026-05-04 11:53 | -4.21329 | 136.46338 | 12386 ft | 209 kts | 84° |
| 2026-05-04 11:55 | -4.24584 | 136.53368 | 11001 ft | 138 kts | 139° |
| 2026-05-04 11:55 | -4.25206 | 136.54035 | 10807 ft | 125 kts | 133° |
| 2026-05-04 11:56 | -4.25755 | 136.54669 | 10611 ft | 116 kts | 130° |
| 2026-05-04 11:56 | -4.26261 | 136.55275 | 10419 ft | 111 kts | 130° |
| 2026-05-04 11:56 | -4.26739 | 136.55857 | 10209 ft | 110 kts | 129° |
| 2026-05-04 11:56 | -4.27237 | 136.56467 | 9916 ft | 115 kts | 129° |
| 2026-05-04 11:57 | -4.27750 | 136.57099 | 9602 ft | 118 kts | 130° |
| 2026-05-04 11:57 | -4.28272 | 136.57742 | 9279 ft | 120 kts | 130° |
| 2026-05-04 11:57 | -4.28797 | 136.58392 | 8958 ft | 120 kts | 130° |
| 2026-05-04 11:57 | -4.29324 | 136.59043 | 8639 ft | 120 kts | 130° |
| 2026-05-04 11:58 | -4.29851 | 136.59694 | 8318 ft | 120 kts | 130° |
| 2026-05-04 11:58 | -4.30369 | 136.60334 | 8006 ft | 116 kts | 130° |
| 2026-05-04 11:58 | -4.30867 | 136.60950 | 7740 ft | 110 kts | 130° |
| 2026-05-04 11:58 | -4.31335 | 136.61529 | 7487 ft | 104 kts | 130° |
| 2026-05-04 11:59 | -4.31783 | 136.62084 | 7244 ft | 101 kts | 131° |
| 2026-05-04 11:59 | -4.32220 | 136.62624 | 7005 ft | 98 kts | 130° |
| 2026-05-04 11:59 | -4.32648 | 136.63152 | 6737 ft | 97 kts | 130° |
| 2026-05-04 11:59 | -4.33070 | 136.63674 | 6505 ft | 96 kts | 130° |
| 2026-05-04 12:00 | -4.33488 | 136.64189 | 6265 ft | 95 kts | 131° |
| 2026-05-04 12:00 | -4.33904 | 136.64704 | 6028 ft | 99 kts | 130° |
| 2026-05-04 12:00 | -4.34355 | 136.65261 | 5901 ft | 107 kts | 131° |
| 2026-05-04 12:00 | -4.34838 | 136.65858 | 5785 ft | 113 kts | 131° |
| 2026-05-04 12:01 | -4.35347 | 136.66485 | 5664 ft | 119 kts | 131° |
| 2026-05-04 12:01 | -4.35866 | 136.67127 | 5653 ft | 127 kts | 130° |
| 2026-05-04 12:02 | -4.39433 | 136.71538 | 4724 ft | 135 kts | 130° |
| 2026-05-04 12:03 | -4.40026 | 136.72270 | 4601 ft | 135 kts | 130° |
| 2026-05-04 12:03 | -4.40617 | 136.73000 | 4478 ft | 135 kts | 130° |
| 2026-05-04 12:03 | -4.41206 | 136.73729 | 4358 ft | 135 kts | 130° |
| 2026-05-04 12:03 | -4.41797 | 136.74459 | 4236 ft | 135 kts | 130° |
| 2026-05-04 12:04 | -4.42387 | 136.75190 | 4117 ft | 135 kts | 130° |
| 2026-05-04 12:04 | -4.42944 | 136.75877 | 3984 ft | 119 kts | 130° |
| 2026-05-04 12:04 | -4.43431 | 136.76483 | 3850 ft | 106 kts | 131° |
| 2026-05-04 12:04 | -4.43914 | 136.77080 | 3736 ft | 113 kts | 131° |
| 2026-05-04 12:05 | -4.44416 | 136.77698 | 3620 ft | 116 kts | 130° |
| 2026-05-04 12:05 | -4.44926 | 136.78329 | 3473 ft | 117 kts | 130° |
| 2026-05-04 12:05 | -4.45440 | 136.78964 | 3355 ft | 118 kts | 130° |
| 2026-05-04 12:05 | -4.45961 | 136.79609 | 3238 ft | 119 kts | 130° |
| 2026-05-04 12:06 | -4.46486 | 136.80257 | 3113 ft | 120 kts | 130° |
| 2026-05-04 12:06 | -4.47013 | 136.80907 | 2993 ft | 120 kts | 130° |
| 2026-05-04 12:06 | -4.47521 | 136.81537 | 2981 ft | 111 kts | 130° |
| 2026-05-04 12:06 | -4.48010 | 136.82140 | 2875 ft | 112 kts | 131° |
| 2026-05-04 12:07 | -4.48468 | 136.82813 | 2607 ft | 123 kts | 119° |
| 2026-05-04 12:07 | -4.48865 | 136.83586 | 2291 ft | 126 kts | 118° |
| 2026-05-04 12:07 | -4.49254 | 136.84368 | 2036 ft | 123 kts | 123° |
| 2026-05-04 12:07 | -4.49692 | 136.85115 | 1765 ft | 123 kts | 121° |
| 2026-05-04 12:08 | -4.50093 | 136.85860 | 1411 ft | 120 kts | 120° |
| 2026-05-04 12:08 | -4.50512 | 136.86559 | 1128 ft | 112 kts | 121° |
| 2026-05-04 12:08 | -4.50929 | 136.87193 | 914 ft | 105 kts | 123° |
| 2026-05-04 12:08 | -4.51300 | 136.87809 | 840 ft | 102 kts | 116° |
| 2026-05-04 12:09 | -4.51610 | 136.88465 | 853 ft | 101 kts | 116° |
| 2026-05-04 12:09 | -4.51904 | 136.89110 | 917 ft | 103 kts | 107° |
| 2026-05-04 12:09 | -4.52285 | 136.89739 | 919 ft | 112 kts | 125° |
| 2026-05-04 12:09 | -4.52736 | 136.90393 | 887 ft | 115 kts | 122° |
| 2026-05-04 12:10 | -4.53142 | 136.91085 | 853 ft | 115 kts | 116° |
| 2026-05-04 12:10 | -4.53568 | 136.91759 | 844 ft | 112 kts | 126° |
| 2026-05-04 12:10 | -4.54184 | 136.92081 | 763 ft | 96 kts | 182° |
| 2026-05-04 12:10 | -4.54721 | 136.91715 | 560 ft | 99 kts | 235° |
| 2026-05-04 12:11 | -4.54838 | 136.91073 | 400 ft | 93 kts | 299° |
| 2026-05-04 12:11 | -4.54366 | 136.90684 | 313 ft | 92 kts | 326° |
| 2026-05-04 12:11 | -4.53905 | 136.90241 | 223 ft | 92 kts | 305° |
| 2026-05-04 12:11 | -4.53564 | 136.89695 | 137 ft | 92 kts | 303° |
| 2026-05-04 12:12 | -4.53268 | 136.89221 | 103 ft | 66 kts | 301° |
| 2026-05-04 12:12 | -4.53062 | 136.88890 | 103 ft | 48 kts | 306° |
| 2026-05-04 12:12 | -4.52909 | 136.88650 | 104 ft | 35 kts | 308° |
| 2026-05-04 12:12 | -4.52801 | 136.88463 | 105 ft | 27 kts | 304° |
| 2026-05-04 12:13 | -4.52708 | 136.88321 | 105 ft | 22 kts | 296° |
| 2026-05-04 12:14 | -4.52560 | 136.87766 | 105 ft | 9 kts | 213° |
| 2026-05-04 12:15 | -4.52610 | 136.87753 | 105 ft | 8 kts | 131° |
| 2026-05-04 12:15 | -4.52631 | 136.87786 | 105 ft | 3 kts | 122° |
| 2026-05-04 12:15 | -4.52631 | 136.87795 | 105 ft | 0 kts | 47° |
| 2026-05-04 12:15 | -4.52620 | 136.87799 | 105 ft | 3 kts | 7° |
| 2026-05-04 12:16 | -4.52608 | 136.87805 | 105 ft | 0 kts | 30° |